Time;durP1;ratioP1;P1;durP2;ratioP2;P2;SDS_P1;SDS_P2;PMS_P1;PMS_P2;Temp;Humidity;BMP_temperature;BMP_pressure;BME280_temperature;BME280_humidity;BME280_pressure;Samples;Min_cycle;Max_cycle;Signal;HPM_P1;HPM_P2
2021/11/17 02:26:18;;;;;;;39.15;15.52;;;;;;;;;;5000831;28;20397;-83
2021/11/17 02:29:05;;;;;;;38.05;15.63;;;;;;;;;;4974990;28;20042;-81
2021/11/17 02:31:53;;;;;;;38.03;15.50;;;;;;;;;;5008453;28;20170;-84
2021/11/17 02:35:03;;;;;;;39.15;16.48;;;;;;;;;;4996479;28;20037;-81
2021/11/17 02:37:50;;;;;;;41.65;16.38;;;;;;;;;;4991673;28;20022;-81
2021/11/17 02:40:15;;;;;;;37.63;15.20;;;;;;;;;;5006809;28;20111;-82
2021/11/17 02:42:57;;;;;;;39.35;16.35;;;;;;;;;;4995300;28;20037;-83
2021/11/17 02:45:28;;;;;;;36.38;15.00;;;;;;;;;;4993043;28;20029;-81
2021/11/17 02:48:19;;;;;;;38.60;14.57;;;;;;;;;;5007086;28;20814;-83
2021/11/17 02:50:51;;;;;;;40.22;15.52;;;;;;;;;;5010728;28;20109;-81
2021/11/17 02:53:41;;;;;;;38.10;16.27;;;;;;;;;;5011818;28;20057;-82
2021/11/17 02:56:48;;;;;;;38.45;15.32;;;;;;;;;;4991399;28;20074;-81
2021/11/17 02:59:22;;;;;;;34.53;14.30;;;;;;;;;;4901516;29;20031;-81
2021/11/17 03:02:08;;;;;;;41.80;15.50;;;;;;;;;;4980426;28;20049;-81
2021/11/17 03:05:00;;;;;;;39.67;15.77;;;;;;;;;;4980918;28;20030;-81
2021/11/17 03:07:50;;;;;;;38.90;15.25;;;;;;;;;;4981922;28;20676;-81
2021/11/17 03:10:49;;;;;;;34.38;14.25;;;;;;;;;;4991293;28;20378;-81
2021/11/17 03:13:23;;;;;;;33.00;14.30;;;;;;;;;;4972872;28;20037;-80
2021/11/17 03:16:01;;;;;;;38.75;15.52;;;;;;;;;;5005710;28;20033;-81
2021/11/17 03:18:36;;;;;;;36.47;14.52;;;;;;;;;;4991399;28;20084;-80
2021/11/17 03:21:17;;;;;;;36.25;14.15;;;;;;;;;;5003494;28;20030;-81
2021/11/17 03:24:14;;;;;;;34.60;14.45;;;;;;;;;;5008765;28;20481;-81
2021/11/17 03:26:39;;;;;;;38.70;14.13;;;;;;;;;;4994858;28;20780;-81
2021/11/17 03:29:15;;;;;;;36.53;14.20;;;;;;;;;;5008107;28;20030;-81
2021/11/17 03:32:13;;;;;;;35.88;14.90;;;;;;;;;;5008808;28;20034;-81
2021/11/17 03:34:51;;;;;;;36.60;14.25;;;;;;;;;;4960446;28;20038;-81
2021/11/17 03:37:28;;;;;;;38.63;14.82;;;;;;;;;;4990367;28;20036;-81
2021/11/17 03:40:11;;;;;;;34.28;15.13;;;;;;;;;;4977626;28;20038;-81
2021/11/17 03:43:09;;;;;;;33.30;14.18;;;;;;;;;;4977492;28;20044;-82
2021/11/17 03:46:05;;;;;;;37.67;13.93;;;;;;;;;;4980080;28;20696;-81
2021/11/17 03:48:49;;;;;;;40.22;15.98;;;;;;;;;;4985869;28;20026;-82
2021/11/17 03:51:43;;;;;;;39.63;15.15;;;;;;;;;;4994630;28;20420;-83
2021/11/17 03:54:27;;;;;;;;;;;;;;;;;;4998114;28;20033;-81
2021/11/17 03:57:20;;;;;;;38.47;13.52;;;;;;;;;;4991305;28;19917;-80
2021/11/17 04:00:20;;;;;;;32.42;14.13;;;;;;;;;;4973797;28;20022;-83
2021/11/17 04:03:04;;;;;;;32.08;12.75;;;;;;;;;;4988514;28;20044;-81
2021/11/17 04:05:51;;;;;;;31.58;13.38;;;;;;;;;;4990704;28;20026;-83
2021/11/17 04:08:34;;;;;;;36.20;14.20;;;;;;;;;;4974431;28;20529;-82
2021/11/17 04:11:06;;;;;;;;;;;;;;;;;;4992628;28;20489;-81
2021/11/17 04:13:53;;;;;;;38.13;14.85;;;;;;;;;;5003303;28;19913;-81
2021/11/17 04:17:04;;;;;;;34.25;13.57;;;;;;;;;;5005418;28;20064;-82
2021/11/17 04:19:48;;;;;;;32.70;13.07;;;;;;;;;;4980043;28;20104;-81
2021/11/17 04:22:26;;;;;;;38.75;14.57;;;;;;;;;;4970798;28;20034;-81
2021/11/17 04:24:54;;;;;;;35.25;13.30;;;;;;;;;;4972498;28;20096;-82
2021/11/17 04:27:42;;;;;;;32.23;13.37;;;;;;;;;;5009003;28;20036;-83
2021/11/17 04:30:57;;;;;;;35.20;14.07;;;;;;;;;;4975267;28;20579;-81
2021/11/17 04:33:34;;;;;;;33.60;13.63;;;;;;;;;;4980090;28;20033;-81
2021/11/17 04:36:14;;;;;;;30.73;12.90;;;;;;;;;;5003191;28;20025;-82
2021/11/17 04:39:10;;;;;;;32.65;13.88;;;;;;;;;;4984360;28;20048;-83
2021/11/17 04:42:03;;;;;;;39.08;15.02;;;;;;;;;;4994200;28;20092;-81
2021/11/17 04:44:32;;;;;;;;;;;;;;;;;;4989801;28;20055;-81
2021/11/17 04:47:18;;;;;;;32.15;13.70;;;;;;;;;;5006491;28;19913;-81
2021/11/17 04:50:03;;;;;;;37.75;14.07;;;;;;;;;;5002154;28;20025;-82
2021/11/17 04:52:38;;;;;;;39.25;14.23;;;;;;;;;;4990625;28;20041;-82
2021/11/17 04:55:06;;;;;;;42.28;14.23;;;;;;;;;;4989682;28;20037;-81
2021/11/17 04:57:41;;;;;;;37.28;13.82;;;;;;;;;;4993706;28;20501;-81
2021/11/17 05:00:46;;;;;;;38.50;14.20;;;;;;;;;;4980256;28;20025;-83
2021/11/17 05:03:46;;;;;;;38.22;15.35;;;;;;;;;;4990967;28;20034;-80
2021/11/17 05:06:29;;;;;;;31.02;12.48;;;;;;;;;;4976814;28;20034;-81
2021/11/17 05:09:13;;;;;;;37.50;15.05;;;;;;;;;;4958635;28;20125;-81
2021/11/17 05:12:07;;;;;;;38.42;14.15;;;;;;;;;;5008499;28;20036;-81
2021/11/17 05:14:44;;;;;;;32.03;12.38;;;;;;;;;;4993981;28;20495;-82
2021/11/17 05:17:27;;;;;;;37.17;14.00;;;;;;;;;;5005578;28;20037;-83
2021/11/17 05:20:03;;;;;;;;;;;;;;;;;;4987553;28;20704;-81
2021/11/17 05:23:11;;;;;;;34.58;13.60;;;;;;;;;;4994362;28;19967;-80
2021/11/17 05:25:45;;;;;;;32.95;13.50;;;;;;;;;;4985747;28;20102;-82
2021/11/17 05:28:35;;;;;;;34.03;13.18;;;;;;;;;;4985590;28;20061;-81
2021/11/17 05:31:22;;;;;;;36.22;13.73;;;;;;;;;;4988341;28;20037;-81
2021/11/17 05:34:19;;;;;;;34.40;13.20;;;;;;;;;;4991262;28;20029;-83
2021/11/17 05:36:57;;;;;;;38.90;14.55;;;;;;;;;;4974774;28;20049;-81
2021/11/17 05:39:34;;;;;;;37.72;14.25;;;;;;;;;;5006814;28;20025;-81
2021/11/17 05:42:20;;;;;;;33.38;13.68;;;;;;;;;;4986241;28;20018;-81
2021/11/17 05:45:24;;;;;;;39.80;14.15;;;;;;;;;;4976217;28;20025;-81
2021/11/17 05:47:52;;;;;;;37.42;13.82;;;;;;;;;;4988043;28;20150;-81
2021/11/17 05:50:27;;;;;;;37.78;14.50;;;;;;;;;;5010480;28;20362;-81
2021/11/17 05:52:58;;;;;;;36.97;14.48;;;;;;;;;;4995643;28;20033;-81
2021/11/17 05:55:54;;;;;;;33.45;13.02;;;;;;;;;;5009911;28;20083;-82
2021/11/17 05:58:44;;;;;;;40.70;14.85;;;;;;;;;;4977949;28;20033;-83
2021/11/17 06:01:34;;;;;;;33.47;13.07;;;;;;;;;;5008957;28;20056;-82
2021/11/17 06:04:00;;;;;;;33.95;13.88;;;;;;;;;;4990956;28;20034;-81
2021/11/17 06:06:25;;;;;;;32.83;13.95;;;;;;;;;;5000481;28;20037;-80
2021/11/17 06:08:50;;;;;;;37.53;14.73;;;;;;;;;;5009859;28;20397;-81
2021/11/17 06:11:24;;;;;;;36.90;13.95;;;;;;;;;;4994154;28;20025;-82
2021/11/17 06:13:49;;;;;;;32.47;12.68;;;;;;;;;;5006579;28;20076;-81
2021/11/17 06:16:15;;;;;;;35.50;13.95;;;;;;;;;;4996296;28;20113;-81
2021/11/17 06:18:41;;;;;;;39.65;15.45;;;;;;;;;;5010933;28;20638;-81
2021/11/17 06:21:09;;;;;;;35.92;13.45;;;;;;;;;;4994554;28;20159;-82
2021/11/17 06:23:45;;;;;;;36.40;13.65;;;;;;;;;;5007006;28;20485;-82
2021/11/17 06:26:21;;;;;;;36.50;13.10;;;;;;;;;;4989474;28;20188;-81
2021/11/17 06:28:57;;;;;;;34.83;13.43;;;;;;;;;;4988683;28;20161;-82
2021/11/17 06:31:23;;;;;;;34.10;14.48;;;;;;;;;;5008222;28;20500;-81
2021/11/17 06:33:48;;;;;;;35.78;14.43;;;;;;;;;;5002482;28;20105;-81
2021/11/17 06:36:14;;;;;;;34.47;14.15;;;;;;;;;;5010242;28;20120;-82
2021/11/17 06:38:39;;;;;;;34.00;14.00;;;;;;;;;;4995234;28;20034;-81
2021/11/17 06:41:05;;;;;;;37.40;14.45;;;;;;;;;;4989862;28;20048;-81
2021/11/17 06:43:31;;;;;;;38.05;14.55;;;;;;;;;;4989705;28;20041;-83
2021/11/17 06:45:58;;;;;;;35.78;13.43;;;;;;;;;;4988883;28;20034;-81
2021/11/17 06:48:26;;;;;;;35.10;13.68;;;;;;;;;;4990714;28;20631;-81
2021/11/17 06:50:53;;;;;;;37.83;15.10;;;;;;;;;;5008369;28;21921;-81
2021/11/17 06:53:20;;;;;;;32.85;13.75;;;;;;;;;;4988865;28;20397;-81
2021/11/17 06:55:45;;;;;;;39.92;14.35;;;;;;;;;;5006235;28;20546;-80
2021/11/17 06:58:12;;;;;;;40.20;14.82;;;;;;;;;;4989762;28;20025;-81
2021/11/17 07:00:40;;;;;;;37.90;14.32;;;;;;;;;;4989718;28;21812;-81
2021/11/17 07:03:06;;;;;;;36.85;14.20;;;;;;;;;;5006145;28;20030;-81
2021/11/17 07:05:32;;;;;;;38.58;15.48;;;;;;;;;;4996448;28;20442;-83
2021/11/17 07:08:00;;;;;;;35.80;14.10;;;;;;;;;;4994347;28;20157;-81
2021/11/17 07:10:27;;;;;;;31.27;13.07;;;;;;;;;;4991388;28;20025;-81
2021/11/17 07:12:54;;;;;;;35.35;13.50;;;;;;;;;;5001323;28;20101;-82
2021/11/17 07:15:20;;;;;;;38.90;14.93;;;;;;;;;;5008182;28;20392;-81
2021/11/17 07:17:46;;;;;;;37.42;15.23;;;;;;;;;;5008743;28;20031;-81
2021/11/17 07:20:13;;;;;;;37.55;14.30;;;;;;;;;;5008085;28;20044;-80
2021/11/17 07:22:39;;;;;;;34.40;14.00;;;;;;;;;;5010783;28;20044;-80
2021/11/17 07:25:07;;;;;;;36.65;14.70;;;;;;;;;;4989883;28;20033;-81
2021/11/17 07:27:33;;;;;;;39.50;15.25;;;;;;;;;;4992797;28;20503;-81
2021/11/17 07:29:58;;;;;;;32.38;14.55;;;;;;;;;;4990649;28;20025;-81
2021/11/17 07:32:26;;;;;;;39.13;15.05;;;;;;;;;;4988551;28;20061;-81
2021/11/17 07:34:51;;;;;;;38.08;15.55;;;;;;;;;;5003487;28;20030;-83
2021/11/17 07:37:17;;;;;;;40.58;15.98;;;;;;;;;;5010679;28;20485;-82
2021/11/17 07:39:42;;;;;;;39.60;15.80;;;;;;;;;;5009328;28;20105;-82
2021/11/17 07:42:08;;;;;;;42.55;16.70;;;;;;;;;;5005854;28;20041;-82
2021/11/17 07:44:33;;;;;;;39.72;15.15;;;;;;;;;;5005150;28;20036;-83
2021/11/17 07:46:59;;;;;;;38.22;15.00;;;;;;;;;;4993056;28;20037;-81
2021/11/17 07:49:26;;;;;;;41.50;15.25;;;;;;;;;;4989335;28;20050;-81
2021/11/17 07:51:52;;;;;;;39.72;16.23;;;;;;;;;;5004384;28;20116;-83
2021/11/17 07:54:19;;;;;;;42.25;16.25;;;;;;;;;;5006018;28;20073;-81
2021/11/17 07:56:46;;;;;;;40.97;14.65;;;;;;;;;;5006592;28;20025;-81
2021/11/17 07:59:16;;;;;;;40.53;15.48;;;;;;;;;;5004847;28;20112;-81
2021/11/17 08:01:45;;;;;;;40.33;15.98;;;;;;;;;;5005566;28;20029;-81
2021/11/17 08:04:14;;;;;;;37.42;15.23;;;;;;;;;;5007321;28;20026;-82
2021/11/17 08:06:41;;;;;;;41.42;15.88;;;;;;;;;;4986408;28;20033;-81
2021/11/17 08:09:07;;;;;;;40.47;15.68;;;;;;;;;;5007529;28;20053;-81
2021/11/17 08:11:33;;;;;;;43.95;16.27;;;;;;;;;;4990099;28;20461;-81
2021/11/17 08:13:58;;;;;;;40.42;16.42;;;;;;;;;;4993432;28;20092;-82
2021/11/17 08:16:24;;;;;;;41.15;15.70;;;;;;;;;;4994382;28;20032;-83
2021/11/17 08:18:49;;;;;;;45.90;18.58;;;;;;;;;;4992202;28;20473;-83
2021/11/17 08:21:15;;;;;;;48.13;17.55;;;;;;;;;;5007691;28;20689;-81
2021/11/17 08:23:41;;;;;;;49.08;17.88;;;;;;;;;;4996847;28;20033;-81
2021/11/17 08:26:08;;;;;;;44.55;17.83;;;;;;;;;;5004830;28;20052;-82
2021/11/17 08:28:34;;;;;;;53.05;19.77;;;;;;;;;;4994105;28;20061;-81
2021/11/17 08:30:59;;;;;;;48.97;18.35;;;;;;;;;;4982943;28;20054;-82
2021/11/17 08:33:25;;;;;;;47.72;18.30;;;;;;;;;;4992014;28;20577;-81
2021/11/17 08:35:50;;;;;;;53.03;18.58;;;;;;;;;;4988344;28;20030;-81
2021/11/17 08:38:20;;;;;;;50.67;18.00;;;;;;;;;;4987959;28;20038;-80
2021/11/17 08:40:52;;;;;;;54.92;19.15;;;;;;;;;;4989316;28;20032;-81
2021/11/17 08:43:18;;;;;;;54.20;18.63;;;;;;;;;;4987569;28;20079;-82
2021/11/17 08:45:44;;;;;;;47.55;18.15;;;;;;;;;;5001590;28;20095;-83
2021/11/17 08:51:39;;;;;;;53.08;18.38;;;;;;;;;;4923634;29;20039;-82
2021/11/17 08:54:11;;;;;;;43.80;17.48;;;;;;;;;;4920638;29;20047;-80
2021/11/17 08:56:42;;;;;;;48.70;18.65;;;;;;;;;;4910505;29;20039;-82
2021/11/17 08:59:13;;;;;;;50.60;18.67;;;;;;;;;;4952398;28;20112;-82
2021/11/17 09:01:41;;;;;;;49.97;18.67;;;;;;;;;;5003381;28;20171;-82
2021/11/17 09:04:13;;;;;;;48.67;19.35;;;;;;;;;;5005466;28;20121;-83
2021/11/17 09:06:39;;;;;;;55.75;20.65;;;;;;;;;;5002257;28;20017;-81
2021/11/17 09:09:06;;;;;;;52.67;20.45;;;;;;;;;;4985939;28;20103;-80
2021/11/17 09:14:52;;;;;;;58.35;20.08;;;;;;;;;;4952517;28;20072;-81
2021/11/17 09:17:17;;;;;;;57.42;20.55;;;;;;;;;;4988387;28;20045;-81
2021/11/17 09:19:43;;;;;;;54.88;20.10;;;;;;;;;;4985553;28;20030;-82
2021/11/17 09:22:08;;;;;;;58.83;20.40;;;;;;;;;;4984732;28;20053;-80
2021/11/17 09:24:35;;;;;;;65.95;21.45;;;;;;;;;;5003618;28;20034;-80
2021/11/17 09:27:05;;;;;;;61.88;20.70;;;;;;;;;;4995530;28;20030;-80
2021/11/17 09:29:34;;;;;;;60.15;21.65;;;;;;;;;;5000011;28;20041;-82
2021/11/17 09:32:00;;;;;;;64.45;23.35;;;;;;;;;;4983650;28;20452;-81
2021/11/17 09:34:25;;;;;;;55.28;20.88;;;;;;;;;;4983517;28;20038;-81
2021/11/17 09:36:51;;;;;;;61.55;21.45;;;;;;;;;;5000771;28;20171;-81
2021/11/17 09:39:19;;;;;;;54.83;21.10;;;;;;;;;;4994970;28;20443;-83
2021/11/17 09:42:02;;;;;;;;;;;;;;;;;;;;;
2021/11/17 09:44:32;;;;;;;64.47;22.20;;;;;;;;;;5003386;28;20040;-81
2021/11/17 09:47:14;;;;;;;65.55;21.75;;;;;;;;;;4984001;28;20033;-82
2021/11/17 09:50:07;;;;;;;67.30;22.38;;;;;;;;;;4999194;28;20142;-81
2021/11/17 09:52:41;;;;;;;63.70;21.88;;;;;;;;;;4971857;28;20136;-82
2021/11/17 09:55:23;;;;;;;62.08;21.58;;;;;;;;;;5001892;28;20099;-81
2021/11/17 09:57:58;;;;;;;65.05;21.90;;;;;;;;;;4999605;28;20038;-81
2021/11/17 10:00:36;;;;;;;65.07;21.67;;;;;;;;;;4982514;28;20125;-81
2021/11/17 10:03:16;;;;;;;63.28;22.33;;;;;;;;;;4998982;28;20029;-81
2021/11/17 10:11:38;;;;;;;61.03;21.05;;;;;;;;;;4998968;28;20064;-81
2021/11/17 10:23:56;;;;;;;61.58;22.05;;;;;;;;;;4065259;26;20175;-81
2021/11/17 10:26:25;;;;;;;68.03;21.30;;;;;;;;;;4987143;28;20058;-80
2021/11/17 10:28:57;;;;;;;61.55;21.77;;;;;;;;;;4985080;28;20455;-83
2021/11/17 10:31:28;;;;;;;60.08;20.48;;;;;;;;;;4986805;28;20533;-81
2021/11/17 10:33:59;;;;;;;64.00;22.77;;;;;;;;;;4986900;28;20489;-81
2021/11/17 10:36:55;;;;;;;64.50;21.83;;;;;;;;;;4989591;28;20113;-81
2021/11/17 10:39:59;;;;;;;78.22;23.83;;;;;;;;;;5007758;28;21267;-81
2021/11/17 10:42:33;;;;;;;65.28;22.27;;;;;;;;;;4997612;28;20034;-80
2021/11/17 10:45:11;;;;;;;67.10;23.90;;;;;;;;;;5002607;28;20121;-81
2021/11/17 10:47:45;;;;;;;61.80;22.52;;;;;;;;;;4993203;28;20025;-80
2021/11/17 10:50:33;;;;;;;60.25;22.20;;;;;;;;;;4993536;28;20608;-80
2021/11/17 10:59:02;;;;;;;61.22;20.85;;;;;;;;;;4947201;28;20043;-81
2021/11/17 11:02:00;;;;;;;62.20;22.13;;;;;;;;;;4929144;28;20035;-81
2021/11/17 11:04:37;;;;;;;59.80;21.00;;;;;;;;;;4868875;28;20045;-82
2021/11/17 11:08:02;;;;;;;;;;;;;;;;;;;;;
2021/11/17 11:11:03;;;;;;;63.38;21.48;;;;;;;;;;4942352;28;20047;-81
2021/11/17 11:13:40;;;;;;;64.63;23.38;;;;;;;;;;4945526;28;20039;-82
2021/11/17 11:16:38;;;;;;;63.60;22.70;;;;;;;;;;4943910;28;20054;-80
2021/11/17 11:19:10;;;;;;;58.45;21.85;;;;;;;;;;4949287;28;20046;-81
2021/11/17 11:21:41;;;;;;;61.97;21.73;;;;;;;;;;4972601;28;20117;-84
2021/11/17 11:24:11;;;;;;;56.85;22.00;;;;;;;;;;4969426;28;20117;-85
2021/11/17 11:27:06;;;;;;;63.92;20.95;;;;;;;;;;4975831;28;20030;-80
2021/11/17 11:29:36;;;;;;;55.72;21.05;;;;;;;;;;4983421;28;20031;-86
2021/11/17 11:32:24;;;;;;;52.65;20.00;;;;;;;;;;4966155;28;20026;-85
2021/11/17 11:34:59;;;;;;;55.75;20.58;;;;;;;;;;4967968;28;20026;-83
2021/11/17 11:37:24;;;;;;;48.05;19.92;;;;;;;;;;4968815;28;20060;-84
2021/11/17 11:40:06;;;;;;;54.75;20.75;;;;;;;;;;4968230;28;20478;-86
2021/11/17 11:43:09;;;;;;;56.38;21.20;;;;;;;;;;4964273;28;20555;-84
2021/11/17 11:45:40;;;;;;;52.35;21.08;;;;;;;;;;4967441;28;20030;-84
2021/11/17 11:48:44;;;;;;;50.67;20.70;;;;;;;;;;4964847;28;20121;-81
2021/11/17 11:51:21;;;;;;;51.25;21.95;;;;;;;;;;4888009;29;20460;-80
2021/11/17 11:54:10;;;;;;;52.13;19.88;;;;;;;;;;4965542;28;20453;-85
2021/11/17 11:56:47;;;;;;;49.67;20.05;;;;;;;;;;4984398;28;20034;-83
2021/11/17 11:59:18;;;;;;;51.30;20.73;;;;;;;;;;4970749;28;20050;-82
2021/11/17 12:01:44;;;;;;;50.33;20.00;;;;;;;;;;4966515;28;20433;-86
2021/11/17 12:04:19;;;;;;;53.63;20.17;;;;;;;;;;4984159;28;20046;-80
2021/11/17 12:06:56;;;;;;;50.05;20.00;;;;;;;;;;4971463;28;20443;-85
2021/11/17 12:09:29;;;;;;;49.67;19.63;;;;;;;;;;4967606;28;20117;-86
2021/11/17 12:12:01;;;;;;;44.25;18.50;;;;;;;;;;4972011;28;20121;-84
2021/11/17 12:15:01;;;;;;;47.10;19.80;;;;;;;;;;4967888;28;20046;-84
2021/11/17 12:17:27;;;;;;;43.33;18.15;;;;;;;;;;4955064;28;20042;-80
2021/11/17 12:19:56;;;;;;;42.63;18.42;;;;;;;;;;4971402;28;20075;-82
2021/11/17 12:22:39;;;;;;;45.00;18.23;;;;;;;;;;4972632;28;20069;-85
2021/11/17 12:25:32;;;;;;;40.63;18.58;;;;;;;;;;4978894;28;20034;-79
2021/11/17 12:28:05;;;;;;;;;;;;;;;;;;4979787;28;20042;-84
2021/11/17 12:30:52;;;;;;;36.08;15.73;;;;;;;;;;4969306;28;19941;-85
2021/11/17 12:33:21;;;;;;;34.05;14.80;;;;;;;;;;4985518;28;20536;-80
2021/11/17 12:36:10;;;;;;;34.25;15.55;;;;;;;;;;4984180;28;20648;-81
2021/11/17 12:38:36;;;;;;;36.08;15.90;;;;;;;;;;4982135;28;20026;-82
2021/11/17 12:41:10;;;;;;;36.75;15.52;;;;;;;;;;4978116;28;20030;-82
2021/11/17 12:43:51;;;;;;;36.70;16.05;;;;;;;;;;4977481;28;20642;-79
2021/11/17 12:46:29;;;;;;;33.58;13.63;;;;;;;;;;4979020;28;20061;-84
2021/11/17 12:49:13;;;;;;;32.58;13.85;;;;;;;;;;4984171;28;20034;-81
2021/11/17 12:51:46;;;;;;;33.45;14.52;;;;;;;;;;4977390;28;20026;-80
2021/11/17 12:54:23;;;;;;;31.20;14.77;;;;;;;;;;4982536;28;20034;-83
2021/11/17 12:56:53;;;;;;;29.88;12.50;;;;;;;;;;4977964;28;20375;-84
2021/11/17 12:59:33;;;;;;;32.95;13.65;;;;;;;;;;4991999;28;20052;-80
2021/11/17 13:02:04;;;;;;;29.60;13.90;;;;;;;;;;4979077;28;20026;-80
2021/11/17 13:04:39;;;;;;;28.67;12.52;;;;;;;;;;4978932;28;20038;-81
2021/11/17 13:07:10;;;;;;;30.00;11.95;;;;;;;;;;4977367;28;20409;-80
2021/11/17 13:09:41;;;;;;;28.92;11.80;;;;;;;;;;4979101;28;20167;-78
2021/11/17 13:12:07;;;;;;;25.40;10.55;;;;;;;;;;4983660;28;20031;-83
2021/11/17 13:14:44;;;;;;;23.10;7.13;;;;;;;;;;4988292;28;20049;-81
2021/11/17 13:17:18;;;;;;;17.95;4.25;;;;;;;;;;4985804;28;20076;-84
2021/11/17 13:20:13;;;;;;;19.15;3.28;;;;;;;;;;4989258;28;20029;-81
2021/11/17 13:22:59;;;;;;;15.15;3.88;;;;;;;;;;4970933;28;20042;-81
2021/11/17 13:25:29;;;;;;;18.13;4.03;;;;;;;;;;4968707;28;20112;-78
2021/11/17 13:28:04;;;;;;;17.70;3.25;;;;;;;;;;4983592;28;20033;-82
2021/11/17 13:30:48;;;;;;;20.13;2.83;;;;;;;;;;4980317;28;20063;-79
2021/11/17 13:33:31;;;;;;;15.13;3.00;;;;;;;;;;4984798;28;20064;-85
2021/11/17 13:36:05;;;;;;;16.88;2.35;;;;;;;;;;4984252;28;20549;-84
2021/11/17 13:38:31;;;;;;;14.88;2.80;;;;;;;;;;4979793;28;20386;-81
2021/11/17 13:41:04;;;;;;;15.27;2.63;;;;;;;;;;4981327;28;20188;-84
2021/11/17 13:43:30;;;;;;;14.15;3.03;;;;;;;;;;4979908;28;20026;-81
2021/11/17 13:45:58;;;;;;;12.20;2.58;;;;;;;;;;4982297;28;20848;-84
2021/11/17 13:48:27;;;;;;;18.45;2.47;;;;;;;;;;4979628;28;20030;-84
2021/11/17 13:50:54;;;;;;;19.80;2.95;;;;;;;;;;4976013;28;20121;-84
2021/11/17 13:53:21;;;;;;;21.85;3.20;;;;;;;;;;4978154;28;20034;-83
2021/11/17 13:55:59;;;;;;;12.45;2.90;;;;;;;;;;4984779;28;20061;-84
2021/11/17 13:58:25;;;;;;;18.42;3.15;;;;;;;;;;4976409;28;20030;-81
2021/11/17 14:00:51;;;;;;;9.20;2.55;;;;;;;;;;4982761;28;20026;-85
2021/11/17 14:03:17;;;;;;;12.55;3.08;;;;;;;;;;4982218;28;20038;-84
2021/11/17 14:05:45;;;;;;;12.95;3.20;;;;;;;;;;4980170;28;20037;-84
2021/11/17 14:08:11;;;;;;;16.15;3.05;;;;;;;;;;4982597;28;20129;-84
2021/11/17 14:10:37;;;;;;;17.20;3.22;;;;;;;;;;4985267;28;20073;-79
2021/11/17 14:13:03;;;;;;;15.35;3.40;;;;;;;;;;4983693;28;20052;-85
2021/11/17 14:15:29;;;;;;;12.90;2.92;;;;;;;;;;4981907;28;20490;-82
2021/11/17 14:17:55;;;;;;;19.17;3.45;;;;;;;;;;4983801;28;20034;-80
2021/11/17 14:20:21;;;;;;;16.35;3.10;;;;;;;;;;4989385;28;20525;-85
2021/11/17 14:22:47;;;;;;;14.73;4.05;;;;;;;;;;4989270;28;20080;-79
2021/11/17 14:25:17;;;;;;;18.00;3.50;;;;;;;;;;4991903;28;20533;-85
2021/11/17 14:27:50;;;;;;;14.05;3.40;;;;;;;;;;4997533;28;20033;-84
2021/11/17 14:30:32;;;;;;;13.02;3.55;;;;;;;;;;4994349;28;20121;-81
2021/11/17 14:32:58;;;;;;;14.25;4.13;;;;;;;;;;4989058;28;20038;-84
2021/11/17 14:35:27;;;;;;;11.95;3.25;;;;;;;;;;4992622;28;20452;-79
2021/11/17 14:37:54;;;;;;;11.50;3.88;;;;;;;;;;4993815;28;20038;-81
2021/11/17 14:40:21;;;;;;;13.55;3.70;;;;;;;;;;4992682;28;20034;-85
2021/11/17 14:42:46;;;;;;;15.43;3.75;;;;;;;;;;4987982;28;20041;-78
2021/11/17 14:45:17;;;;;;;16.48;4.28;;;;;;;;;;4987656;28;20034;-78
2021/11/17 14:47:42;;;;;;;17.73;4.07;;;;;;;;;;4992386;28;20536;-85
2021/11/17 14:50:09;;;;;;;14.23;3.65;;;;;;;;;;4992125;28;20030;-79
2021/11/17 14:52:35;;;;;;;13.35;3.10;;;;;;;;;;4986117;28;20105;-84
2021/11/17 14:55:00;;;;;;;16.75;3.45;;;;;;;;;;4986332;28;20115;-86
2021/11/17 14:57:26;;;;;;;11.38;3.28;;;;;;;;;;4987736;28;20038;-78
2021/11/17 14:59:53;;;;;;;17.58;3.63;;;;;;;;;;4985060;28;20023;-84
2021/11/17 15:02:18;;;;;;;22.05;3.72;;;;;;;;;;4988818;28;20513;-85
2021/11/17 15:04:44;;;;;;;13.15;3.50;;;;;;;;;;4984972;28;20026;-83
2021/11/17 15:07:14;;;;;;;16.05;3.88;;;;;;;;;;4987986;28;20034;-80
2021/11/17 15:09:42;;;;;;;22.38;3.83;;;;;;;;;;4999941;28;20555;-81
2021/11/17 15:12:16;;;;;;;13.43;3.47;;;;;;;;;;4988579;28;20646;-81
2021/11/17 15:14:44;;;;;;;15.38;3.90;;;;;;;;;;4988048;28;20029;-84
2021/11/17 15:17:13;;;;;;;15.90;3.40;;;;;;;;;;4984588;28;20041;-79
2021/11/17 15:19:42;;;;;;;22.52;4.40;;;;;;;;;;4974743;28;20026;-79
2021/11/17 15:22:14;;;;;;;14.85;3.30;;;;;;;;;;4981968;28;20061;-81
2021/11/17 15:24:43;;;;;;;12.32;3.35;;;;;;;;;;4985014;28;20037;-79
2021/11/17 15:27:44;;;;;;;21.15;3.70;;;;;;;;;;4984496;28;20045;-83
2021/11/17 15:30:43;;;;;;;13.00;3.70;;;;;;;;;;4984146;28;20422;-79
2021/11/17 15:33:51;;;;;;;15.10;3.40;;;;;;;;;;4983918;28;20050;-86
2021/11/17 15:36:17;;;;;;;12.43;3.22;;;;;;;;;;4984039;28;20045;-81
2021/11/17 15:38:47;;;;;;;14.07;3.20;;;;;;;;;;4987247;28;20406;-85
2021/11/17 15:41:19;;;;;;;15.40;3.90;;;;;;;;;;4979649;28;20026;-86
2021/11/17 15:43:49;;;;;;;17.33;3.75;;;;;;;;;;4979405;28;20034;-82
2021/11/17 15:46:19;;;;;;;17.90;3.47;;;;;;;;;;4982056;28;20062;-85
2021/11/17 15:48:47;;;;;;;13.73;3.00;;;;;;;;;;4980410;28;20753;-85
2021/11/17 15:51:48;;;;;;;13.98;3.42;;;;;;;;;;4984628;28;20038;-85
2021/11/17 15:54:20;;;;;;;16.58;3.35;;;;;;;;;;4984697;28;20563;-82
2021/11/17 15:56:49;;;;;;;10.47;3.37;;;;;;;;;;4984055;28;20714;-82
2021/11/17 15:59:18;;;;;;;11.73;3.22;;;;;;;;;;4981871;28;20618;-80
2021/11/17 16:01:51;;;;;;;11.52;3.58;;;;;;;;;;4982579;28;20023;-82
2021/11/17 16:04:19;;;;;;;15.90;3.25;;;;;;;;;;4985291;28;20049;-82
2021/11/17 16:07:22;;;;;;;12.60;3.65;;;;;;;;;;4985553;28;20485;-81
2021/11/17 16:09:54;;;;;;;18.90;4.28;;;;;;;;;;4979376;28;20038;-81
2021/11/17 16:12:24;;;;;;;10.43;3.20;;;;;;;;;;4986621;28;20355;-84
2021/11/17 16:14:53;;;;;;;11.18;3.30;;;;;;;;;;4984919;28;20455;-79
2021/11/17 16:17:23;;;;;;;13.32;3.20;;;;;;;;;;4981119;28;20018;-85
2021/11/17 16:19:52;;;;;;;15.35;3.55;;;;;;;;;;4982628;28;20022;-81
2021/11/17 16:28:39;;;;;;;;;;;;;;;;;;;;;
2021/11/17 16:31:26;;;;;;;10.80;3.13;;;;;;;;;;4947312;28;20043;-82
2021/11/17 16:33:56;;;;;;;9.95;3.10;;;;;;;;;;4929949;28;20074;-80
2021/11/17 16:36:25;;;;;;;13.15;3.20;;;;;;;;;;4928007;29;20047;-85
2021/11/17 16:38:56;;;;;;;14.45;3.70;;;;;;;;;;4939848;28;20395;-83
2021/11/17 16:41:25;;;;;;;14.38;3.85;;;;;;;;;;4942316;28;20055;-84
2021/11/17 16:43:56;;;;;;;16.45;5.13;;;;;;;;;;4929426;28;20200;-85
2021/11/17 16:46:29;;;;;;;14.57;4.30;;;;;;;;;;4942659;28;20055;-85
2021/11/17 16:48:57;;;;;;;16.17;3.45;;;;;;;;;;4940573;28;20090;-81
2021/11/17 16:51:29;;;;;;;15.07;2.92;;;;;;;;;;4966014;28;20045;-85
2021/11/17 16:53:57;;;;;;;19.77;3.65;;;;;;;;;;4964436;28;20050;-83
2021/11/17 16:56:29;;;;;;;8.35;2.92;;;;;;;;;;4960383;28;20034;-82
2021/11/17 16:58:57;;;;;;;14.63;3.50;;;;;;;;;;4960089;28;20034;-85
2021/11/17 17:01:29;;;;;;;11.77;3.60;;;;;;;;;;4959062;28;20034;-81
2021/11/17 17:04:00;;;;;;;11.45;3.17;;;;;;;;;;4962044;28;20026;-79
2021/11/17 17:06:30;;;;;;;13.68;3.88;;;;;;;;;;4977198;28;20038;-82
2021/11/17 17:09:00;;;;;;;10.65;3.33;;;;;;;;;;4964944;28;20166;-82
2021/11/17 17:11:32;;;;;;;11.00;3.67;;;;;;;;;;4961974;28;20023;-85
2021/11/17 17:14:00;;;;;;;12.30;3.67;;;;;;;;;;4960532;28;20034;-85
2021/11/17 17:17:02;;;;;;;8.77;3.42;;;;;;;;;;4960024;28;20041;-85
2021/11/17 17:19:31;;;;;;;14.68;3.28;;;;;;;;;;4960127;28;20026;-85
2021/11/17 17:22:03;;;;;;;13.00;4.05;;;;;;;;;;4975902;28;20036;-84
2021/11/17 17:24:35;;;;;;;14.70;3.97;;;;;;;;;;4973476;28;20051;-83
2021/11/17 17:27:06;;;;;;;12.48;3.95;;;;;;;;;;4961217;28;20462;-81
2021/11/17 17:29:35;;;;;;;14.13;4.30;;;;;;;;;;4958378;28;20041;-84
2021/11/17 17:32:05;;;;;;;12.73;4.43;;;;;;;;;;4979539;28;20106;-79
2021/11/17 17:34:35;;;;;;;10.50;3.92;;;;;;;;;;4959975;28;20049;-86
2021/11/17 17:37:06;;;;;;;15.98;3.92;;;;;;;;;;4978478;28;20030;-85
2021/11/17 17:39:37;;;;;;;10.43;3.80;;;;;;;;;;4977457;28;20018;-81
2021/11/17 17:42:11;;;;;;;11.10;3.72;;;;;;;;;;4962829;28;20035;-81
2021/11/17 17:44:39;;;;;;;13.50;3.97;;;;;;;;;;4960941;28;20839;-81
2021/11/17 17:47:11;;;;;;;10.93;4.10;;;;;;;;;;4959617;28;20113;-81
2021/11/17 17:49:37;;;;;;;15.40;4.45;;;;;;;;;;4960177;28;20121;-81
2021/11/17 17:52:08;;;;;;;9.98;3.78;;;;;;;;;;4957269;28;20038;-86
2021/11/17 17:54:40;;;;;;;8.32;3.90;;;;;;;;;;4963924;28;20953;-85
2021/11/17 17:57:09;;;;;;;16.02;3.92;;;;;;;;;;4978503;28;21637;-85
2021/11/17 17:59:39;;;;;;;16.20;4.22;;;;;;;;;;4962938;28;20504;-80
2021/11/17 18:02:11;;;;;;;15.73;4.28;;;;;;;;;;4977846;28;20031;-82
2021/11/17 18:04:40;;;;;;;14.80;4.03;;;;;;;;;;4964425;28;20061;-85
2021/11/17 18:07:07;;;;;;;12.73;3.83;;;;;;;;;;4976003;28;20472;-84
2021/11/17 18:09:34;;;;;;;12.32;3.90;;;;;;;;;;4981284;28;20036;-82
2021/11/17 18:12:00;;;;;;;13.40;4.25;;;;;;;;;;4960748;28;20921;-84